Time;durP1;ratioP1;P1;durP2;ratioP2;P2;SDS_P1;SDS_P2;PMS_P1;PMS_P2;Temp;Humidity;BMP_temperature;BMP_pressure;BME280_temperature;BME280_humidity;BME280_pressure;Samples;Min_cycle;Max_cycle;Signal;HPM_P1;HPM_P2
2023/05/20 00:02:04;;;;;;;21.80;3.30;;;10.10;99.90;;;;;;5038970;28;20201;-70
2023/05/20 00:04:30;;;;;;;6.10;3.20;;;10.10;99.90;;;;;;5045533;28;20205;-70
2023/05/20 00:06:56;;;;;;;4.90;2.17;;;10.10;99.90;;;;;;5051376;28;20858;-70
2023/05/20 00:09:21;;;;;;;4.70;2.60;;;10.10;99.90;;;;;;5048092;28;20487;-70
2023/05/20 00:11:47;;;;;;;4.40;3.07;;;10.10;99.90;;;;;;5050937;28;20236;-70
2023/05/20 00:14:13;;;;;;;8.50;3.13;;;10.10;99.90;;;;;;5051334;28;20177;-70
2023/05/20 00:16:38;;;;;;;6.03;2.83;;;10.10;99.90;;;;;;5051522;28;20217;-70
2023/05/20 00:19:04;;;;;;;5.17;2.80;;;10.20;99.90;;;;;;5050467;28;20178;-70
2023/05/20 00:21:30;;;;;;;3.33;1.83;;;10.20;99.90;;;;;;5051230;28;20502;-70
2023/05/20 00:23:57;;;;;;;2.50;1.60;;;10.20;99.90;;;;;;5046152;28;20181;-70
2023/05/20 00:26:23;;;;;;;8.60;2.27;;;10.20;99.90;;;;;;5051071;28;20205;-70
2023/05/20 00:28:48;;;;;;;3.80;1.83;;;10.20;99.90;;;;;;5051340;28;20420;-70
2023/05/20 00:31:14;;;;;;;4.50;2.20;;;10.30;99.90;;;;;;5051027;28;20264;-70
2023/05/20 00:33:40;;;;;;;9.83;2.10;;;10.20;99.90;;;;;;5050546;28;20200;-70
2023/05/20 00:36:06;;;;;;;5.47;2.27;;;10.20;99.90;;;;;;5049973;28;20499;-70
2023/05/20 00:38:32;;;;;;;4.17;2.60;;;10.30;99.90;;;;;;5046785;28;20186;-70
2023/05/20 00:40:58;;;;;;;4.60;1.97;;;10.30;99.90;;;;;;5043847;28;20209;-70
2023/05/20 00:43:25;;;;;;;3.47;1.60;;;10.30;99.90;;;;;;5049802;28;20927;-70
2023/05/20 00:45:52;;;;;;;22.37;2.87;;;10.20;99.90;;;;;;5049921;28;20216;-70
2023/05/20 00:48:18;;;;;;;5.93;2.23;;;10.30;99.90;;;;;;5050344;28;20412;-70
2023/05/20 00:50:44;;;;;;;3.10;2.20;;;10.30;99.90;;;;;;5049992;28;20495;-70
2023/05/20 00:53:09;;;;;;;2.27;1.50;;;10.30;99.90;;;;;;5044952;28;20503;-70
2023/05/20 00:55:35;;;;;;;3.47;2.20;;;10.30;99.90;;;;;;5049867;28;20235;-70
2023/05/20 00:58:01;;;;;;;5.47;2.67;;;10.30;99.90;;;;;;5049887;28;20190;-70
2023/05/20 01:00:26;;;;;;;5.60;2.27;;;10.40;99.90;;;;;;5049171;28;20189;-70
2023/05/20 01:02:54;;;;;;;5.60;2.73;;;10.30;99.90;;;;;;5037711;28;20279;-70
2023/05/20 01:05:20;;;;;;;7.07;2.43;;;10.40;99.90;;;;;;5043896;28;20206;-70
2023/05/20 01:07:45;;;;;;;3.27;2.13;;;10.40;99.90;;;;;;5036074;28;20436;-70
2023/05/20 01:10:11;;;;;;;6.80;2.80;;;10.40;99.90;;;;;;5045672;28;20174;-70
2023/05/20 01:12:47;;;;;;;5.00;2.47;;;10.40;99.90;;;;;;5037225;28;20224;-70
2023/05/20 01:15:15;;;;;;;3.70;2.17;;;10.40;99.90;;;;;;5049408;28;20231;-70
2023/05/20 01:17:45;;;;;;;3.97;1.87;;;10.40;99.90;;;;;;5050169;28;20916;-70
2023/05/20 01:20:13;;;;;;;3.10;1.73;;;10.40;99.90;;;;;;5048631;28;20452;-70
2023/05/20 01:22:46;;;;;;;5.53;2.57;;;10.40;99.90;;;;;;5049424;28;20443;-70
2023/05/20 01:25:12;;;;;;;2.53;2.07;;;10.40;99.90;;;;;;5047518;28;20461;-70
2023/05/20 01:27:38;;;;;;;4.27;2.30;;;10.40;99.90;;;;;;5044887;28;20493;-70
2023/05/20 01:30:04;;;;;;;5.90;2.40;;;10.40;99.90;;;;;;5053735;28;20239;-70
2023/05/20 01:32:43;;;;;;;3.67;1.97;;;10.30;99.90;;;;;;5053758;28;20177;-70
2023/05/20 01:35:09;;;;;;;2.70;1.80;;;10.30;99.90;;;;;;5053639;28;20466;-70
2023/05/20 01:37:39;;;;;;;12.20;3.47;;;10.30;99.90;;;;;;5044755;28;20428;-70
2023/05/20 01:40:07;;;;;;;4.33;1.90;;;10.40;99.90;;;;;;5052845;28;20482;-70
2023/05/20 01:42:34;;;;;;;3.50;1.67;;;10.40;99.90;;;;;;5047408;28;20416;-70
2023/05/20 01:45:00;;;;;;;3.07;1.90;;;10.50;99.90;;;;;;5054088;28;20455;-70
2023/05/20 01:47:25;;;;;;;4.03;1.83;;;10.50;99.90;;;;;;5048762;28;20424;-70
2023/05/20 01:49:53;;;;;;;3.73;1.73;;;10.50;99.90;;;;;;5053659;28;20242;-70
2023/05/20 01:52:19;;;;;;;3.60;2.40;;;10.50;99.90;;;;;;5054150;28;20227;-70
2023/05/20 01:54:49;;;;;;;4.00;2.30;;;10.50;99.90;;;;;;5054287;28;20427;-70
2023/05/20 01:57:17;;;;;;;3.40;2.50;;;10.50;99.90;;;;;;5054157;28;20420;-70
2023/05/20 01:59:43;;;;;;;4.13;2.00;;;10.50;99.90;;;;;;5053895;28;20908;-70
2023/05/20 02:02:09;;;;;;;2.30;1.50;;;10.50;99.90;;;;;;5039588;28;20448;-70
2023/05/20 02:04:34;;;;;;;4.30;2.53;;;10.50;99.90;;;;;;5048060;28;20537;-70
2023/05/20 02:07:00;;;;;;;4.93;2.50;;;10.50;99.90;;;;;;5052379;28;20181;-70
2023/05/20 02:09:27;;;;;;;4.57;2.20;;;10.50;99.90;;;;;;5050570;28;20178;-70
2023/05/20 02:11:53;;;;;;;3.47;2.10;;;10.50;99.90;;;;;;5042863;28;20194;-70
2023/05/20 02:14:18;;;;;;;4.83;2.30;;;10.50;99.90;;;;;;5052167;28;20432;-70
2023/05/20 02:16:46;;;;;;;5.30;2.27;;;10.50;99.90;;;;;;5053503;28;20699;-70
2023/05/20 02:19:11;;;;;;;4.10;2.57;;;10.50;99.90;;;;;;5052624;28;20186;-70
2023/05/20 02:21:40;;;;;;;5.33;2.60;;;10.50;99.90;;;;;;5053224;28;20424;-70
2023/05/20 02:24:06;;;;;;;5.80;2.53;;;10.50;99.90;;;;;;5053512;28;20178;-70
2023/05/20 02:26:33;;;;;;;5.03;2.50;;;10.50;99.90;;;;;;5053315;28;20431;-70
2023/05/20 02:28:59;;;;;;;5.20;2.63;;;10.50;99.90;;;;;;5053204;28;20181;-70
2023/05/20 02:31:24;;;;;;;4.30;2.37;;;10.50;99.90;;;;;;5053418;28;20428;-70
2023/05/20 02:33:50;;;;;;;6.00;2.43;;;10.50;99.90;;;;;;5053384;28;20242;-70
2023/05/20 02:36:16;;;;;;;4.50;2.97;;;10.50;99.90;;;;;;5051866;28;20228;-70
2023/05/20 02:38:42;;;;;;;4.43;2.60;;;10.50;99.90;;;;;;5046437;28;20209;-70
2023/05/20 02:41:07;;;;;;;5.50;2.20;;;10.50;99.90;;;;;;5047435;28;20182;-70
2023/05/20 02:43:35;;;;;;;6.40;2.87;;;10.50;99.90;;;;;;5052728;28;20485;-70
2023/05/20 02:46:03;;;;;;;3.20;1.90;;;10.50;99.90;;;;;;5053023;28;20239;-70
2023/05/20 02:48:29;;;;;;;4.63;2.33;;;10.50;99.90;;;;;;5053356;28;20469;-70
2023/05/20 02:50:55;;;;;;;5.70;2.30;;;10.50;99.90;;;;;;5048927;28;20504;-70
2023/05/20 02:53:21;;;;;;;5.03;2.40;;;10.40;99.90;;;;;;5052464;28;20239;-70
2023/05/20 02:55:47;;;;;;;6.30;2.67;;;10.40;99.90;;;;;;5039467;28;20558;-70
2023/05/20 02:58:13;;;;;;;4.50;2.30;;;10.40;99.90;;;;;;5053028;28;20427;-70
2023/05/20 03:00:42;;;;;;;4.67;2.73;;;10.40;99.90;;;;;;5050649;28;20428;-70
2023/05/20 03:03:08;;;;;;;8.13;1.93;;;10.40;99.90;;;;;;5042135;28;20260;-70
2023/05/20 03:05:37;;;;;;;7.10;2.80;;;10.40;99.90;;;;;;5048094;28;20810;-70
2023/05/20 03:08:10;;;;;;;3.30;1.80;;;10.40;99.90;;;;;;5051394;28;20416;-70
2023/05/20 03:10:37;;;;;;;3.87;1.87;;;10.40;99.90;;;;;;5049629;28;20466;-70
2023/05/20 03:13:10;;;;;;;4.40;2.60;;;10.40;99.90;;;;;;5052466;28;20492;-70
2023/05/20 03:15:36;;;;;;;6.80;3.10;;;10.40;99.90;;;;;;5052308;28;20426;-70
2023/05/20 03:18:02;;;;;;;2.53;1.90;;;10.40;99.90;;;;;;5052803;28;20416;-70
2023/05/20 03:20:28;;;;;;;4.33;2.20;;;10.40;99.90;;;;;;5050752;28;20427;-70
2023/05/20 03:22:54;;;;;;;4.23;2.43;;;10.40;99.90;;;;;;5052333;28;20197;-70
2023/05/20 03:25:21;;;;;;;6.50;3.13;;;10.40;99.90;;;;;;5052443;28;20452;-70
2023/05/20 03:27:47;;;;;;;4.03;2.47;;;10.40;99.90;;;;;;5052792;28;20189;-70
2023/05/20 03:30:13;;;;;;;3.27;2.17;;;10.40;99.90;;;;;;5052272;28;20900;-70
2023/05/20 03:32:38;;;;;;;3.13;2.27;;;10.40;99.90;;;;;;5052172;28;20393;-70
2023/05/20 03:35:05;;;;;;;3.97;1.93;;;10.50;99.90;;;;;;5051639;28;20182;-70
2023/05/20 03:37:31;;;;;;;4.27;2.80;;;10.40;99.90;;;;;;5052550;28;20190;-70
2023/05/20 03:39:57;;;;;;;5.20;2.30;;;10.40;99.90;;;;;;5039022;28;20427;-70
2023/05/20 03:42:22;;;;;;;8.23;3.10;;;10.40;99.90;;;;;;5051877;28;20630;-70
2023/05/20 03:44:48;;;;;;;3.83;2.37;;;10.50;99.90;;;;;;5051715;28;20228;-70
2023/05/20 03:47:13;;;;;;;3.30;2.17;;;10.50;99.90;;;;;;5051835;28;20181;-70
2023/05/20 03:49:40;;;;;;;5.00;2.63;;;10.50;99.90;;;;;;5051608;28;20174;-70
2023/05/20 03:52:06;;;;;;;5.87;3.23;;;10.50;99.90;;;;;;5051698;28;20216;-70
2023/05/20 03:54:32;;;;;;;3.43;1.90;;;10.60;99.90;;;;;;5051837;28;20420;-70
2023/05/20 03:56:59;;;;;;;4.33;2.23;;;10.60;99.90;;;;;;5051717;28;21143;-70
2023/05/20 03:59:26;;;;;;;3.70;2.47;;;10.60;99.90;;;;;;5051751;28;20424;-70
2023/05/20 04:01:52;;;;;;;4.97;2.03;;;10.60;99.90;;;;;;5040515;28;20433;-70
2023/05/20 04:04:17;;;;;;;4.80;1.93;;;10.60;99.90;;;;;;5044937;28;20432;-70
2023/05/20 04:06:43;;;;;;;6.53;2.80;;;10.60;99.90;;;;;;5051976;28;20412;-70
2023/05/20 04:09:10;;;;;;;2.53;2.00;;;10.60;99.90;;;;;;5046954;28;20213;-70
2023/05/20 04:11:36;;;;;;;3.80;2.00;;;10.60;99.90;;;;;;5043973;28;20186;-70
2023/05/20 04:14:01;;;;;;;3.67;2.40;;;10.60;99.90;;;;;;5051537;28;20431;-70
2023/05/20 04:16:28;;;;;;;5.67;2.50;;;10.60;99.90;;;;;;5051829;28;20201;-70
2023/05/20 04:18:54;;;;;;;3.10;2.13;;;10.80;99.90;;;;;;5050058;28;20258;-70
2023/05/20 04:21:20;;;;;;;5.53;2.57;;;10.70;99.90;;;;;;5051390;28;20416;-70
2023/05/20 04:23:45;;;;;;;3.77;2.53;;;10.80;99.90;;;;;;5051007;28;20785;-70
2023/05/20 04:26:11;;;;;;;3.90;2.37;;;10.70;99.90;;;;;;5050943;28;20600;-70
2023/05/20 04:28:37;;;;;;;8.07;2.20;;;10.70;99.90;;;;;;5051535;28;20182;-70
2023/05/20 04:31:03;;;;;;;4.00;2.80;;;10.80;99.90;;;;;;5050840;28;20178;-70
2023/05/20 04:33:36;;;;;;;4.10;2.57;;;10.80;99.90;;;;;;5051162;28;20439;-70
2023/05/20 04:36:02;;;;;;;3.77;2.33;;;10.80;99.90;;;;;;5050828;28;20420;-70
2023/05/20 04:38:28;;;;;;;2.70;1.97;;;10.90;99.90;;;;;;5039300;28;20436;-70
2023/05/20 04:40:56;;;;;;;3.47;2.20;;;10.90;99.90;;;;;;5044058;28;20420;-70
2023/05/20 04:43:23;;;;;;;4.37;3.20;;;11.00;99.90;;;;;;5050619;28;20204;-70
2023/05/20 04:45:49;;;;;;;3.60;2.40;;;11.00;99.90;;;;;;5050988;28;20794;-70
2023/05/20 04:48:15;;;;;;;5.97;2.63;;;11.10;99.90;;;;;;5051473;28;20419;-70
2023/05/20 04:50:40;;;;;;;3.10;2.03;;;11.10;99.90;;;;;;5050507;28;20174;-70
2023/05/20 04:53:07;;;;;;;5.00;2.57;;;11.10;99.90;;;;;;5050816;28;20249;-70
2023/05/20 04:55:33;;;;;;;6.90;2.93;;;11.20;99.90;;;;;;5050807;28;20190;-70
2023/05/20 04:57:58;;;;;;;5.43;3.00;;;11.20;99.90;;;;;;5051007;28;20416;-70
2023/05/20 05:00:24;;;;;;;5.30;2.40;;;11.30;99.90;;;;;;5049876;28;20226;-70
2023/05/20 05:02:50;;;;;;;11.57;2.53;;;11.30;99.90;;;;;;5038642;28;20177;-70
2023/05/20 05:05:16;;;;;;;5.10;2.57;;;11.40;99.90;;;;;;5048116;28;20451;-70
2023/05/20 05:07:41;;;;;;;4.07;2.83;;;11.50;99.90;;;;;;5024698;28;20179;-70
2023/05/20 05:10:07;;;;;;;10.10;2.50;;;11.50;99.90;;;;;;5045058;28;20201;-70
2023/05/20 05:12:33;;;;;;;2.97;2.10;;;11.50;99.90;;;;;;5049509;28;20190;-70
2023/05/20 05:14:59;;;;;;;5.33;2.67;;;11.60;99.90;;;;;;5050411;28;20416;-70
2023/05/20 05:17:24;;;;;;;5.10;3.03;;;11.60;99.90;;;;;;5050646;28;20174;-70
2023/05/20 05:19:50;;;;;;;4.40;2.73;;;11.70;99.90;;;;;;5049053;28;20178;-70
2023/05/20 05:22:16;;;;;;;3.13;2.07;;;11.70;99.90;;;;;;5050354;28;20182;-70
2023/05/20 05:24:41;;;;;;;4.90;2.57;;;11.80;99.90;;;;;;5050027;28;20693;-70
2023/05/20 05:27:07;;;;;;;2.67;1.70;;;11.80;99.90;;;;;;5050258;28;20229;-70
2023/05/20 05:29:32;;;;;;;5.10;2.70;;;11.80;99.90;;;;;;5050429;28;20174;-70
2023/05/20 05:31:58;;;;;;;5.27;2.40;;;12.00;99.90;;;;;;5050182;28;20193;-70
2023/05/20 05:34:23;;;;;;;3.13;1.83;;;12.10;99.90;;;;;;5050076;28;20193;-70
2023/05/20 05:36:49;;;;;;;3.80;1.93;;;12.20;99.90;;;;;;5050416;28;20188;-70
2023/05/20 05:39:15;;;;;;;3.83;2.20;;;12.20;99.90;;;;;;5040248;28;20183;-70
2023/05/20 05:41:40;;;;;;;3.93;2.20;;;12.30;99.90;;;;;;5049011;28;20618;-70
2023/05/20 05:44:07;;;;;;;5.90;2.67;;;12.30;99.90;;;;;;5050310;28;20607;-70
2023/05/20 05:46:32;;;;;;;3.33;2.00;;;12.30;99.90;;;;;;5050572;28;20777;-70
2023/05/20 05:48:58;;;;;;;4.50;2.50;;;12.40;99.90;;;;;;5050205;28;20511;-70
2023/05/20 05:51:27;;;;;;;4.30;2.60;;;12.40;99.90;;;;;;5043911;28;20587;-70
2023/05/20 05:53:53;;;;;;;2.17;1.50;;;12.50;99.90;;;;;;5043164;28;20216;-70
2023/05/20 05:56:18;;;;;;;4.00;2.43;;;12.50;99.90;;;;;;5042900;28;20520;-70
2023/05/20 05:58:44;;;;;;;9.47;2.37;;;12.70;99.90;;;;;;5043396;28;20638;-70
2023/05/20 06:01:10;;;;;;;3.23;2.00;;;12.70;99.90;;;;;;5044725;28;20178;-70
2023/05/20 06:03:36;;;;;;;3.70;2.30;;;12.70;99.90;;;;;;5038044;28;20183;-70
2023/05/20 06:06:01;;;;;;;3.40;2.10;;;12.80;99.90;;;;;;5042967;28;20202;-70
2023/05/20 06:08:27;;;;;;;3.30;2.50;;;12.80;99.90;;;;;;5039981;28;20507;-70
2023/05/20 06:10:52;;;;;;;8.33;3.87;;;12.90;99.90;;;;;;5050652;28;20227;-70
2023/05/20 06:13:19;;;;;;;3.80;2.03;;;12.90;99.90;;;;;;5053347;28;20186;-70
2023/05/20 06:15:45;;;;;;;5.13;2.70;;;12.80;99.90;;;;;;5053675;28;20181;-70
2023/05/20 06:18:11;;;;;;;3.93;2.13;;;12.90;99.90;;;;;;5053804;28;20431;-70
2023/05/20 06:20:37;;;;;;;6.27;2.30;;;12.90;99.90;;;;;;5045824;28;20261;-70
2023/05/20 06:23:03;;;;;;;2.57;1.70;;;13.00;99.90;;;;;;5053221;28;20524;-70
2023/05/20 06:25:28;;;;;;;7.30;2.57;;;13.00;99.90;;;;;;5053318;28;20213;-70
2023/05/20 06:27:54;;;;;;;6.00;2.37;;;13.00;99.90;;;;;;5053658;28;20198;-70
2023/05/20 06:30:19;;;;;;;4.27;2.60;;;13.10;99.90;;;;;;5053420;28;20206;-70
2023/05/20 06:32:45;;;;;;;6.07;3.17;;;13.20;99.90;;;;;;5053483;28;20184;-70
2023/05/20 06:35:11;;;;;;;2.93;2.30;;;13.20;99.90;;;;;;5052496;28;20193;-70
2023/05/20 06:37:36;;;;;;;5.30;2.50;;;13.30;99.90;;;;;;5053738;28;20232;-70
2023/05/20 06:40:02;;;;;;;3.83;2.03;;;13.40;99.90;;;;;;5041241;28;20194;-70
2023/05/20 06:42:28;;;;;;;3.47;2.47;;;13.30;99.90;;;;;;5053132;28;20181;-70
2023/05/20 06:44:54;;;;;;;6.10;2.60;;;13.40;99.90;;;;;;5039703;28;20212;-70
2023/05/20 06:47:19;;;;;;;4.10;2.30;;;13.50;99.90;;;;;;5053220;28;20790;-70
2023/05/20 06:49:45;;;;;;;6.40;2.43;;;13.80;99.90;;;;;;5052443;28;20182;-70
2023/05/20 06:52:11;;;;;;;4.57;2.87;;;13.80;99.90;;;;;;5052754;28;20221;-70
2023/05/20 06:54:40;;;;;;;3.63;2.23;;;13.90;99.90;;;;;;5052803;28;20614;-70
2023/05/20 06:57:09;;;;;;;6.20;2.30;;;13.90;99.90;;;;;;5053260;28;20258;-70
2023/05/20 06:59:36;;;;;;;5.07;2.13;;;13.80;99.90;;;;;;5052753;28;20429;-70
2023/05/20 07:02:02;;;;;;;4.33;2.60;;;14.00;99.90;;;;;;5040308;28;20417;-70
2023/05/20 07:04:28;;;;;;;4.70;2.80;;;14.10;99.90;;;;;;5047214;28;20420;-70
2023/05/20 07:06:54;;;;;;;4.57;2.07;;;14.20;99.90;;;;;;5052565;28;20773;-70
2023/05/20 07:09:20;;;;;;;6.30;2.63;;;14.10;99.90;;;;;;5037895;28;20416;-70
2023/05/20 07:11:46;;;;;;;5.43;2.67;;;14.30;99.90;;;;;;5046093;28;20483;-70
2023/05/20 07:14:11;;;;;;;6.20;2.60;;;14.30;99.90;;;;;;5052893;28;20264;-70
2023/05/20 07:16:37;;;;;;;3.43;2.03;;;14.30;99.90;;;;;;5052909;28;20185;-70
2023/05/20 07:19:03;;;;;;;4.03;1.83;;;14.30;99.90;;;;;;5051282;28;20245;-70
2023/05/20 07:21:29;;;;;;;5.00;2.90;;;14.40;99.90;;;;;;5052224;28;20186;-70
2023/05/20 07:23:54;;;;;;;7.63;3.77;;;14.50;99.90;;;;;;5051918;28;20416;-70
2023/05/20 07:26:20;;;;;;;3.67;2.40;;;14.60;99.90;;;;;;5052673;28;20666;-70
2023/05/20 07:28:46;;;;;;;6.60;2.73;;;14.40;99.90;;;;;;5052522;28;20203;-70
2023/05/20 07:31:12;;;;;;;4.43;2.57;;;14.20;99.90;;;;;;5052337;28;20185;-70
2023/05/20 07:33:38;;;;;;;9.87;2.80;;;14.30;99.90;;;;;;5051924;28;20186;-70
2023/05/20 07:36:04;;;;;;;9.70;3.20;;;14.60;99.90;;;;;;5051818;28;20419;-70
2023/05/20 07:38:31;;;;;;;8.63;3.47;;;14.80;99.90;;;;;;5048947;28;20188;-70
2023/05/20 07:40:56;;;;;;;10.40;3.20;;;14.90;99.90;;;;;;5045226;28;20424;-71
2023/05/20 07:43:22;;;;;;;6.17;2.67;;;15.90;99.90;;;;;;5051474;28;20412;-71
2023/05/20 07:45:48;;;;;;;8.93;3.17;;;16.10;99.90;;;;;;5051724;28;20677;-71
2023/05/20 07:48:13;;;;;;;5.40;3.10;;;16.10;99.90;;;;;;5052190;28;20184;-71
2023/05/20 07:50:39;;;;;;;6.27;2.90;;;15.90;99.90;;;;;;5051640;28;20536;-71
2023/05/20 07:53:05;;;;;;;3.73;2.30;;;16.30;99.90;;;;;;5051494;28;20182;-71
2023/05/20 07:55:35;;;;;;;5.90;2.70;;;16.20;99.90;;;;;;5051816;28;20506;-71
2023/05/20 07:58:02;;;;;;;3.53;2.20;;;16.10;99.90;;;;;;5051653;28;20465;-71
2023/05/20 08:00:27;;;;;;;3.97;2.30;;;16.00;99.90;;;;;;5051193;28;20439;-71
2023/05/20 08:02:53;;;;;;;3.57;2.67;;;16.60;99.90;;;;;;5040127;28;20408;-71
2023/05/20 08:05:18;;;;;;;4.03;2.37;;;17.30;99.90;;;;;;5046156;28;20225;-71
2023/05/20 08:07:44;;;;;;;4.03;2.20;;;18.10;99.90;;;;;;5052043;28;20643;-71
2023/05/20 08:10:10;;;;;;;5.20;2.97;;;18.20;99.90;;;;;;5041008;28;20254;-71
2023/05/20 08:12:36;;;;;;;5.63;2.07;;;17.60;99.90;;;;;;5051360;28;20174;-71
2023/05/20 08:15:02;;;;;;;2.80;1.77;;;17.50;99.90;;;;;;5051318;28;20469;-71
2023/05/20 08:17:27;;;;;;;5.90;2.27;;;17.70;99.90;;;;;;5030818;28;20189;-71
2023/05/20 08:19:53;;;;;;;5.10;2.70;;;17.70;99.90;;;;;;5028770;28;20293;-71
2023/05/20 08:22:18;;;;;;;4.43;2.17;;;17.30;99.90;;;;;;5027257;28;20220;-71
2023/05/20 08:24:44;;;;;;;8.93;2.90;;;17.10;99.90;;;;;;5040707;28;20206;-71
2023/05/20 08:27:10;;;;;;;4.17;2.40;;;16.30;99.90;;;;;;5034615;28;20196;-71
2023/05/20 08:29:35;;;;;;;4.23;2.10;;;16.10;99.90;;;;;;5031145;28;20174;-71
2023/05/20 08:32:01;;;;;;;5.43;2.70;;;16.00;99.90;;;;;;5027504;28;20175;-71
2023/05/20 08:34:26;;;;;;;5.10;2.50;;;16.10;99.90;;;;;;5027726;28;20175;-70
2023/05/20 08:36:52;;;;;;;3.33;2.20;;;15.80;99.90;;;;;;5041658;28;20257;-71
2023/05/20 08:39:18;;;;;;;3.83;2.40;;;16.00;99.90;;;;;;5032051;28;20193;-71
2023/05/20 08:41:46;;;;;;;5.60;3.00;;;16.00;99.90;;;;;;5033523;28;20201;-70
2023/05/20 08:44:12;;;;;;;4.17;3.00;;;16.20;99.90;;;;;;5040973;28;20630;-71
2023/05/20 08:46:39;;;;;;;7.60;2.57;;;16.30;99.90;;;;;;5030501;28;20514;-71
2023/05/20 08:49:05;;;;;;;4.70;3.00;;;16.40;99.90;;;;;;5042412;28;20192;-71
2023/05/20 08:51:33;;;;;;;7.20;3.10;;;16.30;99.90;;;;;;5047750;28;20466;-71
2023/05/20 08:53:59;;;;;;;5.53;2.50;;;16.20;99.90;;;;;;5050808;28;20439;-71
2023/05/20 08:56:26;;;;;;;3.90;2.43;;;16.60;99.90;;;;;;5032429;28;21339;-71
2023/05/20 08:58:52;;;;;;;4.47;2.83;;;17.40;99.90;;;;;;5027055;28;20181;-71
2023/05/20 09:01:18;;;;;;;5.67;2.87;;;18.20;99.90;;;;;;5026524;28;20472;-71
2023/05/20 09:03:44;;;;;;;5.60;2.87;;;18.10;99.80;;;;;;5028041;28;20478;-71
2023/05/20 09:06:09;;;;;;;3.27;2.00;;;18.50;99.20;;;;;;5037001;28;20460;-70
2023/05/20 09:08:36;;;;;;;4.30;2.57;;;18.70;98.70;;;;;;5028345;28;20233;-72
2023/05/20 09:11:02;;;;;;;3.77;2.80;;;18.50;98.50;;;;;;5032576;28;20206;-72
2023/05/20 09:13:31;;;;;;;5.13;2.50;;;18.60;98.60;;;;;;5025784;28;20520;-71
2023/05/20 09:15:58;;;;;;;5.70;2.70;;;18.30;98.90;;;;;;5033157;28;20508;-71
2023/05/20 09:18:25;;;;;;;4.10;1.90;;;18.40;98.80;;;;;;5047499;28;20478;-71
2023/05/20 09:20:54;;;;;;;4.90;2.63;;;17.80;99.60;;;;;;5040915;28;20515;-72
2023/05/20 09:23:24;;;;;;;4.63;2.80;;;18.30;99.00;;;;;;5049575;28;20496;-71
2023/05/20 09:25:51;;;;;;;3.50;1.93;;;17.90;99.20;;;;;;5049745;28;20517;-71
2023/05/20 09:28:19;;;;;;;4.90;2.50;;;17.80;99.30;;;;;;5046257;28;20497;-71
2023/05/20 09:30:47;;;;;;;4.47;2.33;;;18.00;98.80;;;;;;5038081;28;20815;-71
2023/05/20 09:33:13;;;;;;;5.10;2.40;;;17.70;99.90;;;;;;5049000;28;20819;-71
2023/05/20 09:35:38;;;;;;;17.93;1.93;;;17.50;99.90;;;;;;5025473;28;20495;-71
2023/05/20 09:38:08;;;;;;;4.13;2.37;;;17.50;99.30;;;;;;5029285;28;20178;-71
2023/05/20 09:40:36;;;;;;;4.77;2.50;;;17.60;99.20;;;;;;5027688;28;20192;-71
2023/05/20 09:43:02;;;;;;;4.23;2.27;;;18.30;98.60;;;;;;5033105;28;20528;-72
2023/05/20 09:45:28;;;;;;;3.23;2.10;;;19.20;97.20;;;;;;5029920;28;20547;-71
2023/05/20 09:47:55;;;;;;;4.73;2.87;;;19.20;96.60;;;;;;5032624;28;20511;-71
2023/05/20 09:50:23;;;;;;;4.00;2.23;;;18.80;97.00;;;;;;5033580;28;20810;-71
2023/05/20 09:52:51;;;;;;;6.80;2.70;;;18.60;97.90;;;;;;5035560;28;20463;-71
2023/05/20 09:55:18;;;;;;;4.33;2.13;;;18.90;97.90;;;;;;5043671;28;20422;-71
2023/05/20 09:57:44;;;;;;;10.17;2.60;;;19.30;97.00;;;;;;5045625;28;20478;-72
2023/05/20 10:00:12;;;;;;;3.97;2.20;;;19.40;97.10;;;;;;5039768;28;20428;-71
2023/05/20 10:02:45;;;;;;;4.43;2.20;;;19.80;96.00;;;;;;5037396;28;20433;-72
2023/05/20 10:05:20;;;;;;;3.90;2.00;;;20.10;95.50;;;;;;5042201;28;20471;-71
2023/05/20 10:08:15;;;;;;;3.37;1.97;;;19.80;96.90;;;;;;5036644;28;20473;-71
2023/05/20 10:10:49;;;;;;;3.53;2.37;;;19.70;96.90;;;;;;5040072;28;20427;-71
2023/05/20 10:13:40;;;;;;;4.80;2.47;;;19.70;97.40;;;;;;5043251;28;20423;-71
2023/05/20 10:16:56;;;;;;;3.40;2.13;;;19.40;96.50;;;;;;5042179;28;20420;-71
2023/05/20 10:19:34;;;;;;;5.33;2.80;;;19.00;97.20;;;;;;5035373;28;20908;-71
2023/05/20 10:22:03;;;;;;;5.30;2.40;;;18.90;97.30;;;;;;5041171;28;20475;-71
2023/05/20 10:24:37;;;;;;;6.47;2.27;;;19.00;98.00;;;;;;5039928;28;20459;-71
2023/05/20 10:27:06;;;;;;;5.40;2.50;;;19.10;97.80;;;;;;5028150;28;20472;-71
2023/05/20 10:29:51;;;;;;;3.53;1.90;;;19.30;97.70;;;;;;5032027;28;20448;-71
2023/05/20 10:32:30;;;;;;;6.00;2.27;;;19.60;96.90;;;;;;5027301;28;20468;-72
2023/05/20 10:35:03;;;;;;;12.30;2.97;;;20.00;96.60;;;;;;5030959;28;20487;-71
2023/05/20 10:37:47;;;;;;;4.03;2.10;;;20.40;97.10;;;;;;5037623;28;20454;-72
2023/05/20 10:40:14;;;;;;;5.07;2.30;;;20.50;96.30;;;;;;5031225;28;20429;-72
2023/05/20 10:42:41;;;;;;;5.30;2.20;;;20.70;95.80;;;;;;5035567;28;20443;-72
2023/05/20 10:45:08;;;;;;;5.40;2.20;;;20.40;95.60;;;;;;5025499;28;20543;-72
2023/05/20 10:47:34;;;;;;;3.53;1.80;;;20.40;96.10;;;;;;5028069;28;20654;-71
2023/05/20 10:50:01;;;;;;;6.23;2.10;;;19.80;95.90;;;;;;5029307;28;20535;-70
2023/05/20 10:52:31;;;;;;;3.30;2.10;;;19.70;97.00;;;;;;5037022;28;20417;-70
2023/05/20 10:54:58;;;;;;;2.87;2.07;;;20.00;97.10;;;;;;5044564;28;20420;-71
2023/05/20 10:57:28;;;;;;;3.93;2.17;;;20.40;95.90;;;;;;5048186;28;20428;-71
2023/05/20 10:59:54;;;;;;;3.07;1.90;;;20.70;95.40;;;;;;5046674;28;20421;-70
2023/05/20 11:02:30;;;;;;;4.17;2.40;;;21.10;95.50;;;;;;5029502;28;20486;-72
2023/05/20 11:04:58;;;;;;;3.97;2.30;;;21.40;94.30;;;;;;5032011;28;20479;-72
2023/05/20 11:07:28;;;;;;;3.07;2.07;;;21.20;94.50;;;;;;5048774;28;20420;-72
2023/05/20 11:09:55;;;;;;;6.23;3.00;;;21.00;95.70;;;;;;5038073;28;20460;-73
2023/05/20 11:12:22;;;;;;;4.53;2.10;;;20.90;95.00;;;;;;5035983;28;20427;-72
2023/05/20 11:14:49;;;;;;;17.47;2.67;;;20.60;95.10;;;;;;5052411;28;20439;-72
2023/05/20 11:17:15;;;;;;;9.93;2.90;;;20.50;95.40;;;;;;5052758;28;20455;-72
2023/05/20 11:19:41;;;;;;;3.97;2.43;;;20.70;94.20;;;;;;5052161;28;20431;-72
2023/05/20 11:22:07;;;;;;;4.70;2.40;;;20.70;94.10;;;;;;5045725;28;20421;-72
2023/05/20 11:24:32;;;;;;;4.33;2.50;;;20.50;95.30;;;;;;5038111;28;20191;-72
2023/05/20 11:27:00;;;;;;;4.50;2.40;;;20.50;95.00;;;;;;5032001;28;20441;-72
2023/05/20 11:29:27;;;;;;;3.90;1.90;;;20.40;95.30;;;;;;5033757;28;20181;-72
2023/05/20 11:31:54;;;;;;;2.97;1.57;;;20.60;94.10;;;;;;5036030;28;20977;-72
2023/05/20 11:34:23;;;;;;;3.73;1.97;;;20.60;94.90;;;;;;5048589;28;20417;-72
2023/05/20 11:36:56;;;;;;;5.60;2.90;;;20.80;94.10;;;;;;5040347;28;20429;-72
2023/05/20 11:39:21;;;;;;;7.03;2.37;;;20.40;94.80;;;;;;5042593;28;20446;-72
2023/05/20 11:41:47;;;;;;;3.00;1.70;;;20.10;94.80;;;;;;5040008;28;20882;-72
2023/05/20 11:44:13;;;;;;;2.67;1.60;;;20.40;94.90;;;;;;5042553;28;20231;-72
2023/05/20 11:46:43;;;;;;;3.77;2.23;;;20.40;94.70;;;;;;5043590;28;20763;-72
2023/05/20 11:49:09;;;;;;;6.63;2.93;;;20.30;94.60;;;;;;5042442;28;20185;-72
2023/05/20 11:51:36;;;;;;;2.00;1.20;;;20.40;94.70;;;;;;5041501;28;20416;-72
2023/05/20 11:54:03;;;;;;;9.60;2.27;;;20.70;93.80;;;;;;5039948;28;20436;-72
2023/05/20 11:56:35;;;;;;;3.93;2.00;;;20.50;94.90;;;;;;5024755;28;20835;-72
2023/05/20 11:59:01;;;;;;;5.40;2.47;;;21.00;93.60;;;;;;5028118;28;20539;-72
2023/05/20 12:01:29;;;;;;;2.80;1.80;;;21.40;94.30;;;;;;5027603;28;20908;-72
2023/05/20 12:03:55;;;;;;;6.50;2.70;;;21.70;93.20;;;;;;5025099;28;20231;-72
2023/05/20 12:06:21;;;;;;;7.30;2.30;;;21.90;93.30;;;;;;5025624;28;20808;-72
2023/05/20 12:08:47;;;;;;;8.80;2.23;;;22.00;92.30;;;;;;5033822;28;20263;-72
2023/05/20 12:11:13;;;;;;;6.07;2.70;;;22.10;92.20;;;;;;5048942;28;20185;-72
2023/05/20 12:13:39;;;;;;;4.80;2.33;;;22.20;92.40;;;;;;5046081;28;20193;-72
2023/05/20 12:16:05;;;;;;;2.53;1.70;;;22.40;93.20;;;;;;5049818;28;20195;-73
2023/05/20 12:18:31;;;;;;;4.00;2.00;;;22.30;92.80;;;;;;5044367;28;20424;-72
2023/05/20 12:20:58;;;;;;;2.43;1.63;;;22.30;91.70;;;;;;5025408;28;20665;-72
2023/05/20 12:23:24;;;;;;;4.13;1.87;;;22.30;91.70;;;;;;5022033;28;20431;-72
2023/05/20 12:25:49;;;;;;;4.00;2.30;;;22.30;92.40;;;;;;5020811;28;20468;-72
2023/05/20 12:28:16;;;;;;;3.20;2.03;;;22.70;91.30;;;;;;5028957;28;20444;-72
2023/05/20 12:30:42;;;;;;;4.03;1.80;;;22.60;92.40;;;;;;5035909;28;20264;-73
2023/05/20 12:33:08;;;;;;;5.90;2.07;;;22.80;91.60;;;;;;5038379;28;20467;-73
2023/05/20 12:35:39;;;;;;;3.53;1.83;;;22.70;90.70;;;;;;5035047;28;20434;-72
2023/05/20 12:38:05;;;;;;;3.47;2.00;;;22.90;90.20;;;;;;5042651;28;21053;-73
2023/05/20 12:40:31;;;;;;;3.50;1.70;;;22.80;90.20;;;;;;5036360;28;20419;-72
2023/05/20 12:42:57;;;;;;;5.00;2.37;;;22.00;91.70;;;;;;5035512;28;21115;-72
2023/05/20 12:45:23;;;;;;;4.30;1.90;;;22.00;91.50;;;;;;5036966;28;20184;-72